Thunder radar more information blitzortung!


Radar de pluja more information rain snow radar


Visita la nostra xarxa de llocs de meteo:

Template documentation
and downloads

And another site



No particular awareness of the weather is required.    There are no Weather-warnings

Pagina Historial Weather Underground text

Diari Resum Marc 20, 2016 Unitats:  Mètric    Imperial   Tant
« Previous Dia
SegĂźent Dia »
Diari Setmana Mensual Anual Personalitzada
  Maxima: Minima: Media:
Temperatura: 16.8 °C 8.2 °C 12.2 °C
Punt de rosada: 10.9 °C 6.2 °C 8.5 °C
Humitat: 90 % 63 % 79 %
Wind Speed: 18.5 km/h 0.0 km/h 5 km/h
RĂ fegues de vent: 18.5 km/h - -
Vent:- - East
Pression baro: 1015.8 hPa 1012.8 hPa -
Precipitacions: 10.9 mm    
Historical Graphs
 
 
Dades de taula per Marc 20, 2016
Temps Temperatura Punt de rosada Pression baro Vent Wind Speed RĂ fegues de vent Humitat Rainfall Rate (Hourly)
00:00 8.3 °C 6.4 °C 1014.8 hPa NE 3.2 km/h 4.8 km/h 88 % 0.0 mm
00:10 8.3 °C 6.4 °C 1014.8 hPa NNE 1.6 km/h 3.2 km/h 88 % 0.0 mm
00:20 8.2 °C 6.3 °C 1014.8 hPa North 3.2 km/h 4.8 km/h 88 % 0.0 mm
00:30 8.2 °C 6.3 °C 1014.8 hPa NNE 1.6 km/h 6.4 km/h 88 % 0.0 mm
00:40 8.3 °C 6.4 °C 1014.8 hPa NNE 4.8 km/h 8.0 km/h 88 % 0.0 mm
00:50 8.3 °C 6.3 °C 1014.8 hPa NNE 4.8 km/h 9.7 km/h 87 % 0.0 mm
01:00 8.3 °C 6.4 °C 1014.8 hPa NNE 1.6 km/h 1.6 km/h 88 % 0.0 mm
01:10 8.3 °C 6.4 °C 1014.8 hPa NNE 4.8 km/h 8.0 km/h 88 % 0.0 mm
01:20 8.4 °C 6.3 °C 1014.8 hPa NE 3.2 km/h 4.8 km/h 87 % 0.0 mm
01:30 8.3 °C 6.3 °C 1014.8 hPa NE 3.2 km/h 3.2 km/h 87 % 0.0 mm
01:40 8.3 °C 6.3 °C 1015.8 hPa NE 1.6 km/h 4.8 km/h 87 % 0.0 mm
01:50 8.2 °C 6.2 °C 1015.8 hPa Calm     87 % 0.0 mm
02:00 8.3 °C 6.4 °C 1015.8 hPa Calm     88 % 0.0 mm
02:10 8.4 °C 6.7 °C 1015.8 hPa Calm     89 % 0.0 mm
02:20 8.4 °C 6.7 °C 1015.8 hPa NE 1.6 km/h 3.2 km/h 89 % 0.0 mm
02:30 8.6 °C 6.9 °C 1015.8 hPa Calm     89 % 0.0 mm
02:40 8.7 °C 7.2 °C 1014.8 hPa Calm     90 % 0.0 mm
02:50 8.7 °C 7.2 °C 1014.8 hPa Calm     90 % 0.0 mm
03:00 8.9 °C 7.3 °C 1015.8 hPa Calm     90 % 0.0 mm
03:10 9.1 °C 7.4 °C 1015.8 hPa Calm   3.2 km/h 89 % 0.0 mm
03:20 9.2 °C 7.5 °C 1015.8 hPa Calm   1.6 km/h 89 % 0.0 mm
03:30 9.3 °C 7.6 °C 1015.8 hPa Calm   4.8 km/h 89 % 0.0 mm
03:40 9.4 °C 7.7 °C 1015.8 hPa Calm     89 % 0.0 mm
03:50 9.8 °C 8.1 °C 1015.8 hPa Calm     89 % 0.0 mm
04:00 10.0 °C 8.1 °C 1015.8 hPa North 4.8 km/h 6.4 km/h 88 % 0.0 mm
04:10 10.4 °C 8.3 °C 1015.8 hPa NE 1.6 km/h 4.8 km/h 87 % 0.0 mm
04:20 10.6 °C 8.3 °C 1015.8 hPa NE 4.8 km/h 4.8 km/h 86 % 0.0 mm
04:30 11.2 °C 8.8 °C 1015.8 hPa NE 3.2 km/h 4.8 km/h 85 % 0.0 mm
10:41 11.6 °C 8.8 °C 1015.8 hPa NE 5.6 km/h 5.6 km/h 83 % 0.0 mm
10:46 11.7 °C 8.9 °C 1015.8 hPa NNE 5.6 km/h 5.6 km/h 83 % 0.0 mm
10:51 12.3 °C 9.3 °C 1015.8 hPa NE 7.4 km/h 7.4 km/h 82 % 0.0 mm
10:56 12.4 °C 9.2 °C 1015.8 hPa NNE 5.8 km/h 5.8 km/h 81 % 0.0 mm
11:06 12.2 °C 8.8 °C 1015.8 hPa ENE 3.7 km/h 3.7 km/h 80 % 0.0 mm
11:11 12.2 °C 8.8 °C 1014.8 hPa ESE 7.4 km/h 7.4 km/h 80 % 0.0 mm
11:16 12.2 °C 8.8 °C 1014.8 hPa ESE 7.4 km/h 7.4 km/h 80 % 0.0 mm
11:21 12.2 °C 8.8 °C 1014.8 hPa NNE 7.4 km/h 7.4 km/h 80 % 0.0 mm
11:26 13.0 °C 9.4 °C 1015.8 hPa ESE 9.3 km/h 9.3 km/h 79 % 0.0 mm
11:31 13.3 °C 9.9 °C 1015.8 hPa ESE 7.4 km/h 7.4 km/h 80 % 0.0 mm
11:36 13.4 °C 9.8 °C 1015.8 hPa NNW 3.9 km/h 3.9 km/h 79 % 0.0 mm
11:41 13.4 °C 9.8 °C 1015.8 hPa ESE 14.8 km/h 14.8 km/h 79 % 0.0 mm
11:46 13.4 °C 9.8 °C 1015.8 hPa ENE 5.8 km/h 5.8 km/h 79 % 0.0 mm
11:51 13.4 °C 9.7 °C 1015.8 hPa NE 5.6 km/h 5.6 km/h 78 % 0.0 mm
11:56 13.5 °C 9.7 °C 1015.8 hPa NNE 9.3 km/h 9.3 km/h 78 % 0.0 mm
12:01 13.6 °C 9.8 °C 1015.8 hPa ESE 11.1 km/h 11.1 km/h 78 % 0.0 mm
12:06 13.5 °C 9.7 °C 1015.8 hPa ENE 7.4 km/h 7.4 km/h 78 % 0.0 mm
12:11 13.4 °C 9.7 °C 1015.8 hPa ESE 9.3 km/h 9.3 km/h 78 % 0.0 mm
12:16 13.4 °C 9.4 °C 1015.8 hPa NNE 5.6 km/h 6.1 km/h 77 % 0.0 mm
12:21 13.4 °C 9.4 °C 1015.8 hPa ESE 10.0 km/h 10.0 km/h 77 % 0.0 mm
12:26 13.6 °C 9.7 °C 1015.8 hPa ENE 11.1 km/h 11.1 km/h 77 % 0.0 mm
12:28 13.6 °C 9.7 °C 1015.8 hPa NNE 9.3 km/h 9.3 km/h 77 % 0.0 mm
12:33 14.0 °C 9.8 °C 1015.8 hPa ENE 7.4 km/h 7.4 km/h 76 % 0.0 mm
12:38 14.1 °C 9.9 °C 1015.8 hPa East 11.1 km/h 11.1 km/h 76 % 0.0 mm
12:43 14.8 °C 10.8 °C 1015.8 hPa WSW 5.6 km/h 5.6 km/h 77 % 0.0 mm
12:48 15.3 °C 10.9 °C 1015.8 hPa ESE 11.1 km/h 11.1 km/h 75 % 0.0 mm
12:53 15.1 °C 10.5 °C 1015.8 hPa ENE 10.3 km/h 10.3 km/h 74 % 0.0 mm
12:58 15.1 °C 10.5 °C 1015.8 hPa East 5.6 km/h 5.6 km/h 74 % 0.0 mm
13:03 15.2 °C 10.4 °C 1015.8 hPa ESE 9.3 km/h 9.3 km/h 73 % 0.0 mm
13:13 15.3 °C 10.3 °C 1015.8 hPa ESE 7.9 km/h 7.9 km/h 72 % 0.0 mm
13:18 15.2 °C 10.0 °C 1015.8 hPa South 13.0 km/h 13.0 km/h 71 % 0.0 mm
13:23 15.6 °C 10.3 °C 1015.8 hPa ESE 9.3 km/h 9.3 km/h 71 % 0.0 mm
13:28 15.9 °C 10.7 °C 1015.8 hPa West 9.3 km/h 9.3 km/h 71 % 0.0 mm
13:33 16.3 °C 10.6 °C 1015.8 hPa East 13.0 km/h 13.0 km/h 69 % 0.0 mm
13:38 15.9 °C 10.0 °C 1014.8 hPa ESE 6.1 km/h 6.1 km/h 68 % 0.0 mm
13:43 15.6 °C 9.7 °C 1014.8 hPa ENE 13.0 km/h 13.0 km/h 68 % 0.0 mm
13:48 15.6 °C 9.7 °C 1014.8 hPa ESE 18.5 km/h 18.5 km/h 68 % 0.0 mm
13:53 15.9 °C 10.0 °C 1014.8 hPa NNE 9.3 km/h 9.3 km/h 68 % 0.0 mm
13:58 16.1 °C 9.9 °C 1014.8 hPa ESE 10.3 km/h 10.3 km/h 67 % 0.0 mm
14:08 16.0 °C 9.7 °C 1014.8 hPa ESE 11.1 km/h 11.1 km/h 66 % 0.0 mm
14:13 16.1 °C 9.7 °C 1014.8 hPa ESE 3.9 km/h 3.9 km/h 66 % 0.0 mm
14:18 16.1 °C 9.5 °C 1014.8 hPa East 9.3 km/h 9.3 km/h 65 % 0.0 mm
14:23 15.8 °C 9.2 °C 1013.8 hPa WNW 9.3 km/h 9.3 km/h 65 % 0.0 mm
14:28 15.7 °C 8.9 °C 1013.8 hPa ENE 11.1 km/h 11.1 km/h 64 % 0.0 mm
14:38 16.0 °C 9.4 °C 1013.8 hPa ESE 11.1 km/h 11.1 km/h 65 % 0.0 mm
14:48 16.0 °C 9.4 °C 1013.8 hPa ESE 7.4 km/h 7.4 km/h 65 % 0.0 mm
14:53 16.1 °C 9.7 °C 1013.8 hPa East 3.7 km/h 3.7 km/h 66 % 0.0 mm
14:58 16.2 °C 9.6 °C 1013.8 hPa NE 5.6 km/h 5.6 km/h 65 % 9.9 mm
15:03 16.8 °C 9.7 °C 1013.8 hPa ENE 4.7 km/h 4.7 km/h 63 % 9.9 mm
15:08 16.6 °C 9.8 °C 1013.8 hPa ESE 9.3 km/h 9.3 km/h 64 % 9.9 mm
15:13 16.4 °C 9.6 °C 1013.8 hPa East 16.7 km/h 16.7 km/h 64 % 9.9 mm
15:23 16.3 °C 9.5 °C 1013.8 hPa ESE 16.7 km/h 16.7 km/h 64 % 9.9 mm
15:28 16.3 °C 9.2 °C 1013.8 hPa ESE 9.3 km/h 9.3 km/h 63 % 9.9 mm
15:33 16.1 °C 9.3 °C 1013.8 hPa ESE 11.1 km/h 11.1 km/h 64 % 9.9 mm
15:38 15.8 °C 9.2 °C 1013.8 hPa SSE 7.4 km/h 7.4 km/h 65 % 9.9 mm
15:43 15.6 °C 9.3 °C 1013.8 hPa SE 14.8 km/h 14.8 km/h 66 % 9.9 mm
15:48 15.5 °C 9.2 °C 1013.8 hPa South 7.4 km/h 8.7 km/h 66 % 9.9 mm
15:53 15.4 °C 9.1 °C 1013.8 hPa East 13.0 km/h 13.0 km/h 66 % 9.9 mm
15:58 15.2 °C 9.1 °C 1013.8 hPa SW 9.3 km/h 9.3 km/h 67 % 0.0 mm
16:03 15.3 °C 9.2 °C 1013.8 hPa ENE 5.6 km/h 5.6 km/h 67 % 0.0 mm
16:08 15.1 °C 9.0 °C 1013.8 hPa SSW 9.3 km/h 9.3 km/h 67 % 0.0 mm
16:13 15.3 °C 9.4 °C 1013.8 hPa SSW 3.9 km/h 3.9 km/h 68 % 0.0 mm
16:18 15.2 °C 9.1 °C 1013.8 hPa East 11.1 km/h 11.1 km/h 67 % 0.0 mm
16:23 15.1 °C 9.2 °C 1013.8 hPa SE 9.3 km/h 9.3 km/h 68 % 0.0 mm
16:28 15.1 °C 9.4 °C 1013.8 hPa ENE 11.1 km/h 11.1 km/h 69 % 0.0 mm
16:38 14.8 °C 9.2 °C 1013.8 hPa ESE 14.0 km/h 14.0 km/h 69 % 0.0 mm
16:43 14.6 °C 9.0 °C 1013.8 hPa ESE 9.3 km/h 9.3 km/h 69 % 0.0 mm
16:48 14.5 °C 8.9 °C 1013.8 hPa ESE 7.4 km/h 7.4 km/h 69 % 0.0 mm
16:53 14.4 °C 8.8 °C 1013.8 hPa SE 11.1 km/h 11.1 km/h 69 % 0.0 mm
16:58 14.3 °C 8.9 °C 1013.8 hPa SE 18.5 km/h 18.5 km/h 70 % 0.0 mm
17:03 14.1 °C 8.7 °C 1013.8 hPa ESE 13.0 km/h 13.0 km/h 70 % 0.0 mm
17:08 13.9 °C 8.7 °C 1013.8 hPa ESE 7.4 km/h 7.4 km/h 71 % 0.0 mm
17:13 13.8 °C 8.8 °C 1013.8 hPa ENE 5.6 km/h 5.6 km/h 72 % 0.0 mm
17:18 13.6 °C 8.8 °C 1013.8 hPa East 5.6 km/h 5.6 km/h 73 % 0.0 mm
17:23 13.6 °C 8.8 °C 1012.8 hPa ESE 5.6 km/h 5.6 km/h 73 % 0.0 mm
17:28 13.6 °C 8.8 °C 1012.8 hPa NE 3.7 km/h 3.7 km/h 73 % 0.0 mm
17:33 13.5 °C 8.9 °C 1012.8 hPa NNE 3.9 km/h 3.9 km/h 74 % 0.0 mm
17:38 13.5 °C 8.9 °C 1013.8 hPa NNE 5.6 km/h 5.6 km/h 74 % 0.0 mm
17:43 13.4 °C 8.8 °C 1013.8 hPa NE 3.7 km/h 3.7 km/h 74 % 0.0 mm
17:48 13.3 °C 8.9 °C 1013.8 hPa ENE 3.7 km/h 3.7 km/h 75 % 0.0 mm
17:53 13.2 °C 9.1 °C 1013.8 hPa ENE 5.6 km/h 5.6 km/h 76 % 0.0 mm
18:03 12.9 °C 8.9 °C 1013.8 hPa ENE 7.4 km/h 7.4 km/h 77 % 0.0 mm
18:08 12.7 °C 8.8 °C 1013.8 hPa NE 5.6 km/h 5.6 km/h 77 % 0.0 mm
18:13 12.5 °C 8.8 °C 1013.8 hPa ENE 3.7 km/h 3.7 km/h 78 % 0.0 mm
18:18 12.3 °C 8.8 °C 1013.8 hPa NNE 3.7 km/h 3.7 km/h 79 % 1.0 mm
18:23 12.2 °C 8.7 °C 1014.8 hPa NNE 9.7 km/h 9.7 km/h 79 % 1.0 mm
18:28 12.1 °C 8.6 °C 1014.8 hPa NNE 9.3 km/h 9.3 km/h 79 % 1.0 mm
18:33 12.1 °C 8.8 °C 1014.8 hPa NNE 7.4 km/h 7.4 km/h 80 % 1.0 mm
18:38 12.0 °C 8.7 °C 1014.8 hPa NNW 5.8 km/h 5.8 km/h 80 % 1.0 mm
18:43 11.9 °C 8.6 °C 1014.8 hPa NNE 7.4 km/h 7.6 km/h 80 % 1.0 mm
18:48 11.7 °C 8.4 °C 1014.8 hPa NNE 7.4 km/h 7.4 km/h 80 % 1.0 mm
18:53 11.7 °C 8.4 °C 1014.8 hPa North 5.6 km/h 5.6 km/h 80 % 1.0 mm
18:58 11.7 °C 8.6 °C 1014.8 hPa NNE 5.6 km/h 5.6 km/h 81 % 1.0 mm
19:03 11.7 °C 8.6 °C 1014.8 hPa ENE 3.7 km/h 3.7 km/h 81 % 1.0 mm
19:13 11.6 °C 8.4 °C 1014.8 hPa Calm     81 % 1.0 mm
19:18 11.5 °C 8.3 °C 1014.8 hPa Calm     81 % 0.0 mm
19:23 11.5 °C 8.3 °C 1014.8 hPa Calm     81 % 0.0 mm
19:28 11.4 °C 8.1 °C 1014.8 hPa Calm     80 % 0.0 mm
19:33 11.2 °C 7.9 °C 1014.8 hPa SW 3.7 km/h 3.7 km/h 80 % 0.0 mm
19:38 11.1 °C 7.8 °C 1014.8 hPa SW 3.7 km/h 3.7 km/h 80 % 0.0 mm
19:43 11.0 °C 8.1 °C 1014.8 hPa Calm     82 % 0.0 mm
19:48 10.8 °C 7.8 °C 1014.8 hPa Calm     82 % 0.0 mm
19:53 10.9 °C 8.1 °C 1014.8 hPa NNW 1.9 km/h 1.9 km/h 83 % 0.0 mm
19:58 10.8 °C 8.0 °C 1014.8 hPa Calm     83 % 0.0 mm
20:03 10.8 °C 8.0 °C 1014.8 hPa Calm     83 % 0.0 mm
20:08 10.7 °C 7.9 °C 1014.8 hPa North 1.9 km/h 1.9 km/h 83 % 0.0 mm
20:13 10.6 °C 8.0 °C 1014.8 hPa NE 3.7 km/h 3.7 km/h 84 % 0.0 mm
20:18 10.6 °C 8.0 °C 1014.8 hPa NE 3.7 km/h 3.7 km/h 84 % 0.0 mm
20:23 10.5 °C 7.9 °C 1014.8 hPa NE 1.9 km/h 1.9 km/h 84 % 0.0 mm
20:28 10.4 °C 7.8 °C 1014.8 hPa Calm     84 % 0.0 mm
20:33 10.3 °C 7.7 °C 1014.8 hPa WNW 3.7 km/h 3.7 km/h 84 % 0.0 mm
20:38 10.2 °C 7.6 °C 1015.8 hPa Calm     84 % 0.0 mm
20:43 10.2 °C 7.6 °C 1015.8 hPa Calm     84 % 0.0 mm
20:48 10.1 °C 7.5 °C 1015.8 hPa Calm     84 % 0.0 mm
20:53 10.0 °C 7.4 °C 1014.8 hPa Calm     84 % 0.0 mm
20:58 10.0 °C 7.4 °C 1014.8 hPa Calm     84 % 0.0 mm
21:03 9.9 °C 7.3 °C 1014.8 hPa Calm     84 % 0.0 mm
21:13 10.0 °C 7.6 °C 1015.8 hPa NNE 3.7 km/h 3.7 km/h 85 % 0.0 mm
21:18 10.0 °C 7.6 °C 1015.8 hPa Calm     85 % 0.0 mm
21:23 10.0 °C 7.6 °C 1015.8 hPa Calm     85 % 0.0 mm
21:33 10.0 °C 7.6 °C 1015.8 hPa WNW 1.9 km/h 1.9 km/h 85 % 0.0 mm
21:38 10.0 °C 7.6 °C 1015.8 hPa Calm     85 % 0.0 mm
21:43 10.0 °C 7.6 °C 1015.8 hPa Calm     85 % 0.0 mm
21:48 10.0 °C 7.6 °C 1015.8 hPa Calm     85 % 0.0 mm
21:53 10.0 °C 7.6 °C 1015.8 hPa NNE 3.7 km/h 3.7 km/h 85 % 0.0 mm
21:58 9.9 °C 7.7 °C 1015.8 hPa Calm     86 % 0.0 mm
22:03 9.9 °C 7.7 °C 1015.8 hPa Calm     86 % 0.0 mm
22:08 9.9 °C 7.8 °C 1015.8 hPa Calm     87 % 0.0 mm
22:13 9.9 °C 7.8 °C 1015.8 hPa Calm     87 % 0.0 mm
22:18 9.9 °C 7.8 °C 1015.8 hPa Calm     87 % 0.0 mm
22:23 9.9 °C 7.8 °C 1015.8 hPa Calm     87 % 0.0 mm
22:28 10.0 °C 7.9 °C 1015.8 hPa Calm     87 % 0.0 mm
22:33 10.0 °C 7.9 °C 1015.8 hPa Calm     87 % 0.0 mm
22:38 10.1 °C 8.1 °C 1015.8 hPa Calm     87 % 0.0 mm
22:43 10.1 °C 8.2 °C 1015.8 hPa Calm     88 % 0.0 mm
22:48 10.2 °C 8.3 °C 1015.8 hPa Calm     88 % 0.0 mm
22:53 10.2 °C 8.3 °C 1015.8 hPa Calm     88 % 0.0 mm
22:58 10.2 °C 8.3 °C 1015.8 hPa Calm     88 % 0.0 mm
23:03 10.2 °C 8.3 °C 1015.8 hPa Calm     88 % 0.0 mm
23:08 10.2 °C 8.3 °C 1015.8 hPa Calm     88 % 0.0 mm
23:13 10.1 °C 8.2 °C 1015.8 hPa Calm     88 % 0.0 mm
23:18 10.2 °C 8.3 °C 1015.8 hPa Calm     88 % 0.0 mm
23:23 10.2 °C 8.3 °C 1015.8 hPa Calm     88 % 0.0 mm
23:28 10.1 °C 8.2 °C 1015.8 hPa Calm     88 % 0.0 mm
23:33 10.0 °C 8.1 °C 1015.8 hPa Calm     88 % 0.0 mm
23:38 10.0 °C 8.1 °C 1015.8 hPa Calm     88 % 0.0 mm
Meteo Sesrovires
Elogis d' Weather Underground - 3.5 mb

Guio original per  Jim McMurry - jmcmurry@mwt.net Adaptat per a la plantilla per  Wim van der Kuil - Leuven-Template.eu

Trobareu la nostra informacio del temps tambe a:

Weather Underground

AWEKAS